createdAt,value
2022-11-30T00:02:39.011Z,8.20
2022-11-30T00:05:27.001Z,8.20
2022-11-30T00:08:16.402Z,8.20
2022-11-30T00:11:08.804Z,8.20
2022-11-30T00:13:56.792Z,8.20
2022-11-30T00:16:44.725Z,8.20
2022-11-30T00:19:32.689Z,8.20
2022-11-30T00:22:20.553Z,8.30
2022-11-30T00:25:10.439Z,8.30
2022-11-30T00:28:01.091Z,8.30
2022-11-30T00:30:57.589Z,8.20
2022-11-30T00:33:45.714Z,8.30
2022-11-30T00:36:34.085Z,8.20
2022-11-30T00:39:21.945Z,8.20
2022-11-30T00:42:11.161Z,8.20
2022-11-30T00:44:59.030Z,8.20
2022-11-30T00:47:46.928Z,8.20
2022-11-30T00:50:35.029Z,8.20
2022-11-30T00:53:23.216Z,8.20
2022-11-30T00:56:11.196Z,8.20
2022-11-30T00:59:00.421Z,8.10
2022-11-30T01:01:48.307Z,8.20
2022-11-30T01:04:36.275Z,8.20
2022-11-30T01:07:24.144Z,8.10
2022-11-30T01:10:12.267Z,8.10
2022-11-30T01:13:00.418Z,8.10
2022-11-30T01:15:49.722Z,8.10
2022-11-30T01:18:37.711Z,8.10
2022-11-30T01:21:26.665Z,8.00
2022-11-30T01:24:14.558Z,8.00
2022-11-30T01:27:02.475Z,8.00
2022-11-30T01:29:50.334Z,8.00
2022-11-30T01:32:39.512Z,8.00
2022-11-30T01:35:27.396Z,8.10
2022-11-30T01:38:15.236Z,8.00
2022-11-30T01:41:03.717Z,8.00
2022-11-30T01:43:52.332Z,8.00
2022-11-30T01:46:41.928Z,8.10
2022-11-30T01:49:31.999Z,8.00
2022-11-30T01:52:21.816Z,8.00
2022-11-30T01:55:14.990Z,8.10
2022-11-30T01:58:04.820Z,8.10
2022-11-30T02:00:52.700Z,8.10
2022-11-30T02:03:43.201Z,8.10
2022-11-30T02:06:32.785Z,8.00
2022-11-30T02:09:22.030Z,8.00
2022-11-30T02:12:12.780Z,8.00
2022-11-30T02:15:04.870Z,8.00
2022-11-30T02:17:55.476Z,8.00
2022-11-30T02:20:56.781Z,8.00
2022-11-30T02:23:54.916Z,7.90
2022-11-30T02:26:52.787Z,8.00
2022-11-30T02:29:43.352Z,8.00
2022-11-30T02:32:33.185Z,8.00
2022-11-30T02:35:22.902Z,8.00
2022-11-30T02:38:11.861Z,8.00
2022-11-30T02:40:59.880Z,8.00
2022-11-30T02:43:47.972Z,7.90
2022-11-30T02:46:42.977Z,7.90
2022-11-30T02:49:33.757Z,7.90
2022-11-30T02:52:23.565Z,7.90
2022-11-30T02:55:12.939Z,7.90
2022-11-30T02:58:01.177Z,7.90
2022-11-30T03:00:49.874Z,7.90
2022-11-30T03:03:39.103Z,7.90
2022-11-30T03:06:26.991Z,7.90
2022-11-30T03:09:15.343Z,7.90
2022-11-30T03:12:03.228Z,7.90
2022-11-30T03:14:51.099Z,7.90
2022-11-30T03:17:38.956Z,7.90
2022-11-30T03:20:28.344Z,7.90
2022-11-30T03:23:16.313Z,7.90
2022-11-30T03:26:04.993Z,7.90
2022-11-30T03:28:52.895Z,8.00
2022-11-30T03:31:40.824Z,8.00
2022-11-30T03:34:28.666Z,8.00
2022-11-30T03:37:17.974Z,8.00
2022-11-30T03:40:06.490Z,8.00
2022-11-30T03:42:54.330Z,8.00
2022-11-30T03:45:45.843Z,7.90
2022-11-30T03:48:35.984Z,8.00
2022-11-30T03:51:23.888Z,7.90
2022-11-30T03:54:13.157Z,7.90
2022-11-30T03:57:01.164Z,7.90
2022-11-30T03:59:49.036Z,7.90
2022-11-30T04:02:41.534Z,7.90
2022-11-30T04:05:33.975Z,7.90
2022-11-30T04:08:22.108Z,7.90
2022-11-30T04:11:12.096Z,7.90
2022-11-30T04:13:59.939Z,7.90
2022-11-30T04:16:47.787Z,7.90
2022-11-30T04:19:35.785Z,7.90
2022-11-30T04:22:23.662Z,7.90
2022-11-30T04:25:11.565Z,7.90
2022-11-30T04:28:00.862Z,7.90
2022-11-30T04:30:48.846Z,7.90
2022-11-30T04:33:36.674Z,7.90
2022-11-30T04:36:25.096Z,7.90
2022-11-30T04:39:13.078Z,7.90
2022-11-30T04:42:01.116Z,7.90
2022-11-30T04:44:50.686Z,7.90
2022-11-30T04:47:39.100Z,7.90
2022-11-30T04:50:27.419Z,7.90
2022-11-30T04:53:15.532Z,7.90
2022-11-30T04:56:05.729Z,7.90
2022-11-30T04:58:53.865Z,7.90
2022-11-30T05:01:43.671Z,7.90
2022-11-30T05:04:32.036Z,7.90
2022-11-30T05:07:20.256Z,7.90
2022-11-30T05:10:09.311Z,7.90
2022-11-30T05:12:58.111Z,7.90
2022-11-30T05:15:46.430Z,7.90
2022-11-30T05:18:36.238Z,7.90
2022-11-30T05:21:24.538Z,7.90
2022-11-30T05:24:12.932Z,7.80
2022-11-30T05:27:01.527Z,7.80
2022-11-30T05:29:50.389Z,7.80
2022-11-30T05:32:39.318Z,7.80
2022-11-30T05:35:29.431Z,7.80
2022-11-30T05:38:18.391Z,7.80
2022-11-30T05:41:07.072Z,7.90
2022-11-30T05:43:55.588Z,7.90
2022-11-30T05:46:45.320Z,7.90
2022-11-30T05:49:33.648Z,7.90
2022-11-30T05:52:23.388Z,7.80
2022-11-30T05:55:11.586Z,7.90
2022-11-30T05:57:59.794Z,7.80
2022-11-30T06:00:48.042Z,7.90
2022-11-30T06:03:37.013Z,7.90
2022-11-30T06:06:25.145Z,7.90
2022-11-30T06:09:14.497Z,7.90
2022-11-30T06:12:03.146Z,7.90
2022-11-30T06:14:51.613Z,7.90
2022-11-30T06:17:39.652Z,7.90
2022-11-30T06:20:27.565Z,7.90
2022-11-30T06:23:15.424Z,7.90
2022-11-30T06:26:06.234Z,7.90
2022-11-30T06:28:54.097Z,8.00
2022-11-30T06:31:42.114Z,7.90
2022-11-30T06:34:31.272Z,7.90
2022-11-30T06:37:19.155Z,7.90
2022-11-30T06:40:08.300Z,7.80
2022-11-30T06:42:57.754Z,7.90
2022-11-30T06:45:45.845Z,7.90
2022-11-30T06:48:34.238Z,7.90
2022-11-30T06:51:22.178Z,7.90
2022-11-30T06:54:10.189Z,7.90
2022-11-30T06:56:58.270Z,7.90
2022-11-30T06:59:47.555Z,7.90
2022-11-30T07:02:36.101Z,7.90
2022-11-30T07:05:23.983Z,7.90
2022-11-30T07:08:12.053Z,7.90
2022-11-30T07:11:00.430Z,7.90
2022-11-30T07:13:48.321Z,7.90
2022-11-30T07:16:37.648Z,8.00
2022-11-30T07:19:25.634Z,8.00
2022-11-30T07:22:13.541Z,7.90
2022-11-30T07:25:18.901Z,7.90
2022-11-30T07:28:08.550Z,7.90
2022-11-30T07:30:56.516Z,7.80
2022-11-30T07:33:45.783Z,7.80
2022-11-30T07:36:34.585Z,7.90
2022-11-30T07:39:23.536Z,7.90
2022-11-30T07:42:11.428Z,7.90
2022-11-30T07:44:59.716Z,7.80
2022-11-30T07:47:47.780Z,7.90
2022-11-30T07:50:36.999Z,7.90
2022-11-30T07:53:25.033Z,7.90
2022-11-30T07:56:13.975Z,7.80
2022-11-30T07:59:02.874Z,7.80
2022-11-30T08:01:50.849Z,7.90
2022-11-30T08:04:38.780Z,7.90
2022-11-30T08:07:28.077Z,7.80
2022-11-30T08:10:16.088Z,7.90
2022-11-30T08:13:03.945Z,8.00
2022-11-30T08:15:51.808Z,7.90
2022-11-30T08:18:39.683Z,7.90
2022-11-30T08:21:27.554Z,7.90
2022-11-30T08:24:17.024Z,7.90
2022-11-30T08:27:04.950Z,7.90
2022-11-30T08:29:52.840Z,7.80
2022-11-30T08:32:40.725Z,7.80
2022-11-30T08:35:28.638Z,7.80
2022-11-30T08:38:16.663Z,7.80
2022-11-30T08:41:06.659Z,7.80
2022-11-30T08:43:54.779Z,7.80
2022-11-30T08:49:50.539Z,7.80
2022-11-30T08:52:38.421Z,7.80
2022-11-30T08:55:26.380Z,7.80
2022-11-30T08:58:15.610Z,7.80
2022-11-30T09:01:07.434Z,7.80
2022-11-30T09:03:55.938Z,7.80
2022-11-30T09:06:43.803Z,7.80
2022-11-30T09:09:31.740Z,7.80
2022-11-30T09:12:19.645Z,7.80
2022-11-30T09:15:09.701Z,7.80
2022-11-30T09:17:58.597Z,7.80
2022-11-30T09:20:46.449Z,7.80
2022-11-30T09:23:34.337Z,7.80
2022-11-30T09:26:25.100Z,7.80
2022-11-30T09:29:13.078Z,7.80
2022-11-30T09:32:02.441Z,7.70
2022-11-30T09:34:51.045Z,7.70
2022-11-30T09:37:40.288Z,7.70
2022-11-30T09:40:34.046Z,7.70
2022-11-30T09:43:28.511Z,7.70
2022-11-30T09:46:16.432Z,7.70
2022-11-30T09:49:07.364Z,7.70
2022-11-30T09:51:56.817Z,7.70
2022-11-30T09:54:45.668Z,7.70
2022-11-30T09:57:35.711Z,7.80
2022-11-30T10:00:24.666Z,7.80
2022-11-30T10:03:13.503Z,7.90
2022-11-30T10:06:06.930Z,7.80
2022-11-30T10:09:03.325Z,7.90
2022-11-30T10:11:55.112Z,7.90
2022-11-30T10:14:50.043Z,7.80
2022-11-30T10:17:46.705Z,7.90
2022-11-30T10:20:45.218Z,7.90
2022-11-30T10:23:53.906Z,8.00
2022-11-30T10:26:45.853Z,8.00
2022-11-30T10:29:35.207Z,8.00
2022-11-30T10:32:26.094Z,7.90
2022-11-30T10:35:20.753Z,7.90
2022-11-30T10:38:13.428Z,7.90
2022-11-30T10:41:04.266Z,7.90
2022-11-30T10:43:53.870Z,7.90
2022-11-30T10:46:44.544Z,7.90
2022-11-30T10:49:33.833Z,7.90
2022-11-30T10:52:23.837Z,7.80
2022-11-30T10:55:14.722Z,7.90
2022-11-30T10:58:08.347Z,7.90
2022-11-30T11:01:01.707Z,7.90
2022-11-30T11:03:49.595Z,7.90
2022-11-30T11:06:39.811Z,7.90
2022-11-30T11:09:33.304Z,8.00
2022-11-30T11:12:22.471Z,7.90
2022-11-30T11:15:18.881Z,7.90
2022-11-30T11:18:21.710Z,8.00
2022-11-30T11:21:17.738Z,8.00
2022-11-30T11:24:10.146Z,8.00
2022-11-30T11:26:58.703Z,8.00
2022-11-30T11:29:47.127Z,8.00
2022-11-30T11:32:36.613Z,8.00
2022-11-30T11:35:35.261Z,8.00
2022-11-30T11:38:25.241Z,8.00
2022-11-30T11:41:15.530Z,8.00
2022-11-30T11:44:04.573Z,8.00
2022-11-30T11:46:55.436Z,8.00
2022-11-30T11:49:45.484Z,8.00
2022-11-30T11:52:33.575Z,8.00
2022-11-30T11:55:22.205Z,8.00
2022-11-30T11:58:13.797Z,8.00
2022-11-30T12:01:31.647Z,8.00
2022-11-30T12:04:18.836Z,8.10
2022-11-30T12:07:17.820Z,8.10
2022-11-30T12:10:35.664Z,8.10
2022-11-30T12:13:22.091Z,8.20
2022-11-30T12:16:19.810Z,8.20
2022-11-30T12:19:12.798Z,8.20
2022-11-30T12:22:04.513Z,8.10
2022-11-30T12:25:05.515Z,8.10
2022-11-30T12:27:59.296Z,8.10
2022-11-30T12:30:52.336Z,8.10
2022-11-30T12:33:48.367Z,8.10
2022-11-30T12:36:43.319Z,8.20
2022-11-30T12:39:36.781Z,8.20
2022-11-30T12:42:31.279Z,8.20
2022-11-30T12:45:23.305Z,8.20
2022-11-30T12:48:18.299Z,8.20
2022-11-30T12:51:10.405Z,8.20
2022-11-30T12:54:03.285Z,8.20
2022-11-30T12:56:55.498Z,8.10
2022-11-30T12:59:48.458Z,8.10
2022-11-30T13:02:46.858Z,8.10
2022-11-30T13:05:37.059Z,8.10
2022-11-30T13:08:27.163Z,8.10
2022-11-30T13:11:17.402Z,8.10
2022-11-30T13:14:07.216Z,8.00
2022-11-30T13:16:59.052Z,8.10
2022-11-30T13:19:50.812Z,8.10
2022-11-30T13:22:43.937Z,8.10
2022-11-30T13:26:06.780Z,8.10
2022-11-30T13:28:49.572Z,8.10
2022-11-30T13:31:40.212Z,8.10
2022-11-30T13:34:30.183Z,8.10
2022-11-30T13:37:23.095Z,8.00
2022-11-30T13:40:21.325Z,8.00
2022-11-30T13:43:18.283Z,8.00
2022-11-30T13:46:07.987Z,8.00
2022-11-30T13:49:11.622Z,7.90
2022-11-30T13:52:22.011Z,8.00
2022-11-30T13:55:24.195Z,7.90
2022-11-30T13:58:12.841Z,7.90
2022-11-30T14:01:05.998Z,7.90
2022-11-30T14:04:27.275Z,7.80
2022-11-30T14:07:33.741Z,7.80
2022-11-30T14:10:29.956Z,7.80
2022-11-30T14:13:31.926Z,7.80
2022-11-30T14:16:22.743Z,7.70
2022-11-30T14:19:11.544Z,7.70
2022-11-30T14:21:59.514Z,7.70
2022-11-30T14:24:48.794Z,7.70
2022-11-30T14:27:38.056Z,7.70
2022-11-30T14:30:25.986Z,7.60
2022-11-30T14:33:19.461Z,7.70
2022-11-30T14:36:08.137Z,7.50
2022-11-30T14:38:56.083Z,7.50
2022-11-30T14:41:43.998Z,7.50
2022-11-30T14:44:36.924Z,7.60
2022-11-30T14:47:26.815Z,7.60
2022-11-30T14:50:22.350Z,7.60
2022-11-30T14:53:18.115Z,7.60
2022-11-30T14:56:09.415Z,7.60
2022-11-30T14:59:02.831Z,7.60
2022-11-30T15:01:58.543Z,7.50
2022-11-30T15:04:47.528Z,7.50
2022-11-30T15:07:36.156Z,7.50
2022-11-30T15:10:29.767Z,7.50
2022-11-30T15:13:20.523Z,7.50
2022-11-30T15:16:10.590Z,7.50
2022-11-30T15:19:00.429Z,7.40
2022-11-30T15:21:48.758Z,7.40
2022-11-30T15:24:36.666Z,7.40
2022-11-30T15:27:24.953Z,7.40
2022-11-30T15:30:15.034Z,7.40
2022-11-30T15:33:03.070Z,7.40
2022-11-30T15:36:16.323Z,7.40
2022-11-30T15:39:04.056Z,7.30
2022-11-30T15:41:54.585Z,7.30
2022-11-30T15:44:45.227Z,7.20
2022-11-30T15:47:35.923Z,7.30
2022-11-30T15:50:32.539Z,7.20
2022-11-30T15:53:26.710Z,7.30
2022-11-30T15:56:24.019Z,7.30
2022-11-30T15:59:23.261Z,7.30
2022-11-30T16:02:25.920Z,7.30
2022-11-30T16:05:24.534Z,7.30
2022-11-30T16:08:16.516Z,7.30
2022-11-30T16:11:09.591Z,7.30
2022-11-30T16:13:57.634Z,7.20
2022-11-30T16:16:46.076Z,7.20
2022-11-30T16:19:34.099Z,7.10
2022-11-30T16:22:21.937Z,7.10
2022-11-30T16:25:13.159Z,7.10
2022-11-30T16:28:02.857Z,7.20
2022-11-30T16:30:51.121Z,7.20
2022-11-30T16:33:38.955Z,7.20
2022-11-30T16:36:26.874Z,7.10
2022-11-30T16:39:14.759Z,7.00
2022-11-30T16:42:02.664Z,7.00
2022-11-30T16:44:52.088Z,7.10
2022-11-30T16:47:40.010Z,7.10
2022-11-30T16:50:28.604Z,7.10
2022-11-30T16:53:16.572Z,6.90
2022-11-30T16:56:05.025Z,7.10
2022-11-30T16:58:54.048Z,7.10
2022-11-30T17:01:45.590Z,7.10
2022-11-30T17:04:34.165Z,7.10
2022-11-30T17:07:22.049Z,7.10
2022-11-30T17:10:10.479Z,7.10
2022-11-30T17:12:58.357Z,7.10
2022-11-30T17:15:46.275Z,7.10
2022-11-30T17:18:35.566Z,7.20
2022-11-30T17:21:27.442Z,7.10
2022-11-30T17:24:15.847Z,7.10
2022-11-30T17:27:06.093Z,7.10
2022-11-30T17:29:53.952Z,7.10
2022-11-30T17:32:41.845Z,7.10
2022-11-30T17:35:31.117Z,7.10
2022-11-30T17:38:19.104Z,7.10
2022-11-30T17:41:07.475Z,7.20
2022-11-30T17:43:55.306Z,7.10
2022-11-30T17:46:48.028Z,7.10
2022-11-30T17:49:36.348Z,7.10
2022-11-30T17:52:25.611Z,7.10
2022-11-30T17:55:13.467Z,7.00
2022-11-30T17:58:01.659Z,7.00
2022-11-30T18:00:51.928Z,7.00
2022-11-30T18:03:39.867Z,7.10
2022-11-30T18:06:27.780Z,7.10
2022-11-30T18:09:17.009Z,7.10
2022-11-30T18:12:05.285Z,7.10
2022-11-30T18:14:53.339Z,7.10
2022-11-30T18:17:41.207Z,7.10
2022-11-30T18:20:29.360Z,7.10
2022-11-30T18:23:17.210Z,7.10
2022-11-30T18:26:07.600Z,7.10
2022-11-30T18:28:57.508Z,7.10
2022-11-30T18:31:48.191Z,7.10
2022-11-30T18:34:36.071Z,7.10
2022-11-30T18:37:24.727Z,7.10
2022-11-30T18:40:13.207Z,7.00
2022-11-30T18:43:02.606Z,7.00
2022-11-30T18:45:50.520Z,7.10
2022-11-30T18:48:38.895Z,7.00
2022-11-30T18:51:28.034Z,7.10
2022-11-30T18:54:15.903Z,7.10
2022-11-30T18:57:04.113Z,7.10
2022-11-30T18:59:54.145Z,7.00
2022-11-30T19:02:42.140Z,7.00
2022-11-30T19:05:32.891Z,7.00
2022-11-30T19:08:22.447Z,7.00
2022-11-30T19:11:10.672Z,7.00
2022-11-30T19:13:59.203Z,7.00
2022-11-30T19:16:48.643Z,7.00
2022-11-30T19:19:36.609Z,7.00
2022-11-30T19:22:30.004Z,7.00
2022-11-30T19:25:19.195Z,7.00
2022-11-30T19:28:07.444Z,7.00
2022-11-30T19:30:55.364Z,7.00
2022-11-30T19:33:46.011Z,7.00
2022-11-30T19:36:34.431Z,7.00
2022-11-30T19:39:22.293Z,7.00
2022-11-30T19:42:11.240Z,7.00
2022-11-30T19:45:00.766Z,7.00
2022-11-30T19:47:51.773Z,7.00
2022-11-30T19:50:41.266Z,7.00
2022-11-30T19:53:29.448Z,7.10
2022-11-30T19:56:18.428Z,7.00
2022-11-30T19:59:06.450Z,7.00
2022-11-30T20:01:54.439Z,7.00
2022-11-30T20:04:42.293Z,7.00
2022-11-30T20:07:33.161Z,7.00
2022-11-30T20:10:21.281Z,7.00
2022-11-30T20:13:09.127Z,7.00
2022-11-30T20:15:57.137Z,6.90
2022-11-30T20:18:46.530Z,6.90
2022-11-30T20:21:35.886Z,6.90
2022-11-30T20:24:25.143Z,6.90
2022-11-30T20:27:13.024Z,6.90
2022-11-30T20:30:01.047Z,7.00
2022-11-30T20:32:48.938Z,7.00
2022-11-30T20:35:37.061Z,7.00
2022-11-30T20:38:25.587Z,7.00
2022-11-30T20:41:15.955Z,7.00
2022-11-30T20:44:03.980Z,7.10
2022-11-30T20:46:51.871Z,7.00
2022-11-30T20:49:39.768Z,7.00
2022-11-30T20:52:27.756Z,7.10
2022-11-30T20:55:15.716Z,7.10
2022-11-30T20:58:05.264Z,7.10
2022-11-30T21:00:53.177Z,7.10
2022-11-30T21:03:41.162Z,7.20
2022-11-30T21:06:29.586Z,7.20
2022-11-30T21:09:18.468Z,7.20
2022-11-30T21:12:07.318Z,7.20
2022-11-30T21:14:57.620Z,7.20
2022-11-30T21:17:45.473Z,7.20
2022-11-30T21:20:33.303Z,7.20
2022-11-30T21:23:24.981Z,7.20
2022-11-30T21:26:17.123Z,7.20
2022-11-30T21:29:06.841Z,7.20
2022-11-30T21:31:56.351Z,7.20
2022-11-30T21:34:44.282Z,7.20
2022-11-30T21:37:32.408Z,7.20
2022-11-30T21:40:20.336Z,7.20
2022-11-30T21:43:08.255Z,7.20
2022-11-30T21:45:59.892Z,7.20
2022-11-30T21:48:50.071Z,7.20
2022-11-30T21:51:38.080Z,7.20
2022-11-30T21:54:25.921Z,7.20
2022-11-30T21:57:13.795Z,7.20
2022-11-30T22:00:01.695Z,7.20
2022-11-30T22:02:49.680Z,7.20
2022-11-30T22:05:38.922Z,7.10
2022-11-30T22:08:26.818Z,7.10
2022-11-30T22:11:15.163Z,7.10
2022-11-30T22:14:03.661Z,7.10
2022-11-30T22:16:51.625Z,7.10
2022-11-30T22:19:39.494Z,7.10
2022-11-30T22:22:28.883Z,7.10
2022-11-30T22:25:16.817Z,7.10
2022-11-30T22:28:04.865Z,7.10
2022-11-30T22:30:52.717Z,7.10
2022-11-30T22:33:42.896Z,7.10
2022-11-30T22:36:31.843Z,7.10
2022-11-30T22:39:22.060Z,7.10
2022-11-30T22:42:10.009Z,7.10
2022-11-30T22:44:57.861Z,7.10
2022-11-30T22:47:45.776Z,7.00
2022-11-30T22:50:35.068Z,7.10
2022-11-30T22:53:22.993Z,7.10
2022-11-30T22:56:13.369Z,7.10
2022-11-30T22:59:01.782Z,7.10
2022-11-30T23:01:50.229Z,7.10
2022-11-30T23:04:38.115Z,7.10
2022-11-30T23:07:31.708Z,7.10
2022-11-30T23:10:20.254Z,7.10
2022-11-30T23:13:09.542Z,7.10
2022-11-30T23:15:59.812Z,7.10
2022-11-30T23:18:49.272Z,7.10
2022-11-30T23:21:41.441Z,7.10
2022-11-30T23:24:29.956Z,7.10
2022-11-30T23:27:17.842Z,7.10
2022-11-30T23:30:08.621Z,7.00
2022-11-30T23:32:57.060Z,7.00
2022-11-30T23:35:44.958Z,7.00
2022-11-30T23:38:32.996Z,7.00
2022-11-30T23:41:20.886Z,7.00
2022-11-30T23:44:09.005Z,7.00
2022-11-30T23:46:59.725Z,7.00
2022-11-30T23:49:47.799Z,7.00
2022-11-30T23:52:35.850Z,7.00
2022-11-30T23:55:23.763Z,6.90
2022-11-30T23:58:11.640Z,7.00
